createdAt,value
2024-04-19T00:01:03.250Z,49.98
2024-04-19T00:03:34.155Z,49.74
2024-04-19T00:06:07.492Z,49.66
2024-04-19T00:08:40.891Z,49.22
2024-04-19T00:11:11.515Z,49.52
2024-04-19T00:13:41.863Z,49.76
2024-04-19T00:16:13.024Z,49.15
2024-04-19T00:18:43.996Z,48.48
2024-04-19T00:21:14.619Z,48.77
2024-04-19T00:23:45.516Z,48.76
2024-04-19T00:26:18.621Z,48.23
2024-04-19T00:28:48.839Z,47.86
2024-04-19T00:31:20.018Z,47.70
2024-04-19T00:33:52.871Z,47.89
2024-04-19T00:36:23.282Z,47.75
2024-04-19T00:38:55.378Z,47.22
2024-04-19T00:41:25.687Z,47.70
2024-04-19T00:43:58.866Z,47.90
2024-04-19T00:46:30.624Z,47.92
2024-04-19T00:49:02.298Z,47.58
2024-04-19T00:51:35.301Z,47.61
2024-04-19T00:54:10.405Z,47.00
2024-04-19T00:56:40.939Z,47.16
2024-04-19T00:59:12.970Z,47.07
2024-04-19T01:01:43.224Z,46.68
2024-04-19T01:04:13.507Z,46.37
2024-04-19T01:06:43.729Z,46.23
2024-04-19T01:09:16.956Z,45.74
2024-04-19T01:11:51.181Z,45.62
2024-04-19T01:14:21.367Z,45.50
2024-04-19T01:16:51.545Z,45.15
2024-04-19T01:19:21.745Z,45.60
2024-04-19T01:21:52.063Z,45.71
2024-04-19T01:24:38.327Z,46.34
2024-04-19T01:27:14.316Z,45.38
2024-04-19T01:29:48.195Z,45.39
2024-04-19T01:32:18.552Z,44.98
2024-04-19T01:34:49.720Z,44.79
2024-04-19T01:37:20.736Z,45.22
2024-04-19T01:39:52.202Z,45.97
2024-04-19T01:42:25.895Z,45.91
2024-04-19T01:45:05.442Z,45.34
2024-04-19T01:47:35.716Z,45.66
2024-04-19T01:50:06.556Z,45.54
2024-04-19T01:52:37.280Z,45.21
2024-04-19T01:55:08.021Z,43.81
2024-04-19T01:57:38.679Z,43.48
2024-04-19T02:00:09.845Z,42.95
2024-04-19T02:02:46.196Z,42.92
2024-04-19T02:05:16.482Z,42.74
2024-04-19T02:07:46.500Z,42.40
2024-04-19T02:10:17.459Z,42.30
2024-04-19T02:12:48.481Z,42.42
2024-04-19T02:15:21.752Z,41.96
2024-04-19T02:17:52.902Z,41.52
2024-04-19T02:20:23.732Z,41.28
2024-04-19T02:22:53.966Z,41.33
2024-04-19T02:25:24.262Z,41.22
2024-04-19T02:28:13.005Z,41.20
2024-04-19T02:30:57.375Z,41.04
2024-04-19T02:33:29.296Z,41.22
2024-04-19T02:35:59.630Z,40.74
2024-04-19T02:38:31.391Z,40.69
2024-04-19T02:41:04.241Z,40.67
2024-04-19T02:43:35.348Z,41.06
2024-04-19T02:46:07.220Z,42.88
2024-04-19T02:48:37.886Z,44.01
2024-04-19T02:51:08.176Z,44.48
2024-04-19T02:53:38.385Z,44.83
2024-04-19T02:56:10.043Z,44.90
2024-04-19T02:58:42.384Z,44.89
2024-04-19T03:01:12.961Z,43.83
2024-04-19T03:03:44.276Z,44.12
2024-04-19T03:06:14.659Z,44.65
2024-04-19T03:08:45.324Z,44.52
2024-04-19T03:11:16.423Z,44.55
2024-04-19T03:13:51.725Z,44.68
2024-04-19T03:16:22.170Z,44.43
2024-04-19T03:18:55.243Z,43.55
2024-04-19T03:21:25.680Z,43.71
2024-04-19T03:23:55.990Z,43.81
2024-04-19T03:26:27.591Z,43.66
2024-04-19T03:28:58.270Z,44.20
2024-04-19T03:31:29.242Z,44.14
2024-04-19T03:34:07.284Z,44.28
2024-04-19T03:36:38.128Z,44.41
2024-04-19T03:39:11.361Z,44.21
2024-04-19T03:41:44.918Z,43.87
2024-04-19T03:44:33.817Z,43.63
2024-04-19T03:47:04.543Z,42.82
2024-04-19T03:49:35.205Z,42.09
2024-04-19T03:52:07.959Z,42.11
2024-04-19T03:54:39.460Z,41.73
2024-04-19T03:57:12.538Z,40.95
2024-04-19T03:59:45.289Z,41.19
2024-04-19T04:02:20.867Z,40.57
2024-04-19T04:05:01.323Z,40.40
2024-04-19T04:07:33.500Z,39.85
2024-04-19T04:10:05.865Z,39.91
2024-04-19T04:12:36.939Z,40.00
2024-04-19T04:15:07.722Z,39.73
2024-04-19T04:17:39.226Z,39.39
2024-04-19T04:20:10.402Z,39.11
2024-04-19T04:22:45.403Z,38.99
2024-04-19T04:25:19.688Z,38.64
2024-04-19T04:27:51.797Z,38.53
2024-04-19T04:30:22.607Z,37.90
2024-04-19T04:32:53.434Z,37.94
2024-04-19T04:35:23.826Z,37.57
2024-04-19T04:37:54.375Z,37.16
2024-04-19T04:40:24.583Z,36.62
2024-04-19T04:42:54.878Z,36.56
2024-04-19T04:45:25.785Z,36.87
2024-04-19T04:47:56.059Z,35.95
2024-04-19T04:50:26.500Z,36.21
2024-04-19T04:52:59.591Z,36.61
2024-04-19T04:55:33.462Z,36.16
2024-04-19T04:58:06.247Z,36.30
2024-04-19T05:00:37.377Z,35.65
2024-04-19T05:03:10.577Z,36.20
2024-04-19T05:05:41.381Z,35.73
2024-04-19T05:08:11.631Z,35.72
2024-04-19T05:10:42.104Z,35.18
2024-04-19T05:13:12.327Z,35.71
2024-04-19T05:15:44.345Z,35.28
2024-04-19T05:18:15.056Z,34.67
2024-04-19T05:20:47.510Z,35.00
2024-04-19T05:23:17.977Z,34.94
2024-04-19T05:25:50.953Z,34.19
2024-04-19T05:28:25.999Z,34.56
2024-04-19T05:30:56.627Z,33.75
2024-04-19T05:33:31.162Z,34.22
2024-04-19T05:36:01.725Z,34.77
2024-04-19T05:38:31.927Z,34.86
2024-04-19T05:41:02.555Z,34.90
2024-04-19T05:43:32.847Z,34.43
2024-04-19T05:46:03.420Z,34.10
2024-04-19T05:48:36.462Z,34.25
2024-04-19T05:51:07.224Z,33.99
2024-04-19T05:53:37.705Z,33.80
2024-04-19T05:56:08.347Z,32.92
2024-04-19T05:58:38.573Z,32.95
2024-04-19T06:01:10.171Z,33.77
2024-04-19T06:03:41.104Z,33.84
2024-04-19T06:06:13.236Z,33.01
2024-04-19T06:08:46.808Z,33.12
2024-04-19T06:11:17.011Z,32.75
2024-04-19T06:13:49.393Z,33.13
2024-04-19T06:16:19.851Z,33.31
2024-04-19T06:18:50.300Z,33.64
2024-04-19T06:21:20.597Z,33.50
2024-04-19T06:23:51.657Z,32.91
2024-04-19T06:26:21.866Z,32.59
2024-04-19T06:28:53.578Z,33.19
2024-04-19T06:31:25.373Z,33.48
2024-04-19T06:33:56.090Z,32.82
2024-04-19T06:36:28.393Z,33.40
2024-04-19T06:39:00.041Z,32.28
2024-04-19T06:41:32.579Z,33.06
2024-04-19T06:44:02.906Z,32.04
2024-04-19T06:46:34.324Z,32.34
2024-04-19T06:49:05.048Z,32.22
2024-04-19T06:51:37.856Z,32.56
2024-04-19T06:54:09.084Z,32.54
2024-04-19T06:56:41.013Z,32.39
2024-04-19T06:59:11.742Z,32.85
2024-04-19T07:01:42.407Z,32.43
2024-04-19T07:04:14.761Z,32.08
2024-04-19T07:06:46.549Z,32.42
2024-04-19T07:09:18.651Z,32.39
2024-04-19T07:11:49.296Z,32.24
2024-04-19T07:14:19.889Z,32.25
2024-04-19T07:16:49.934Z,32.46
2024-04-19T07:19:20.533Z,32.56
2024-04-19T07:21:51.038Z,32.95
2024-04-19T07:24:21.451Z,32.79
2024-04-19T07:26:52.965Z,32.55
2024-04-19T07:29:23.160Z,33.39
2024-04-19T07:31:53.467Z,33.24
2024-04-19T07:34:23.712Z,32.89
2024-04-19T07:36:54.703Z,33.16
2024-04-19T07:39:25.427Z,33.16
2024-04-19T07:41:57.245Z,33.30
2024-04-19T07:44:27.500Z,33.13
2024-04-19T07:47:00.761Z,32.87
2024-04-19T07:49:32.143Z,33.35
2024-04-19T07:52:02.658Z,33.26
2024-04-19T07:54:32.864Z,32.75
2024-04-19T07:57:03.691Z,32.59
2024-04-19T07:59:36.288Z,32.91
2024-04-19T08:02:08.921Z,32.84
2024-04-19T08:04:39.275Z,32.58
2024-04-19T08:07:14.768Z,31.90
2024-04-19T08:09:55.332Z,32.45
2024-04-19T08:12:26.011Z,32.68
2024-04-19T08:14:57.002Z,33.57
2024-04-19T08:17:27.283Z,32.97
2024-04-19T08:19:58.243Z,32.51
2024-04-19T08:22:28.487Z,32.40
2024-04-19T08:25:03.786Z,31.90
2024-04-19T08:27:34.056Z,32.00
2024-04-19T08:30:04.929Z,31.97
2024-04-19T08:32:35.329Z,32.44
2024-04-19T08:35:07.962Z,32.61
2024-04-19T08:37:38.227Z,33.29
2024-04-19T08:40:09.107Z,32.00
2024-04-19T08:42:43.654Z,31.58
2024-04-19T08:45:17.815Z,32.62
2024-04-19T08:47:49.007Z,32.52
2024-04-19T08:50:21.058Z,31.68
2024-04-19T08:53:09.828Z,31.66
2024-04-19T08:55:43.375Z,31.91
2024-04-19T08:58:14.386Z,31.57
2024-04-19T09:00:44.927Z,31.69
2024-04-19T09:03:21.112Z,31.49
2024-04-19T09:05:51.763Z,32.04
2024-04-19T09:08:24.458Z,31.68
2024-04-19T09:10:55.028Z,31.34
2024-04-19T09:13:25.849Z,31.23
2024-04-19T09:15:57.810Z,30.81
2024-04-19T09:18:30.087Z,30.85
2024-04-19T09:21:00.637Z,30.32
2024-04-19T09:23:31.384Z,30.34
2024-04-19T09:26:05.031Z,29.95
2024-04-19T09:28:35.631Z,30.40
2024-04-19T09:31:07.599Z,30.44
2024-04-19T09:33:40.435Z,29.96
2024-04-19T09:36:11.755Z,30.68
2024-04-19T09:38:43.805Z,30.61
2024-04-19T09:41:18.436Z,30.31
2024-04-19T09:43:51.271Z,29.47
2024-04-19T09:46:44.527Z,28.74
2024-04-19T09:49:23.205Z,27.34
2024-04-19T09:51:54.108Z,27.08
2024-04-19T09:54:31.936Z,26.46
2024-04-19T09:57:05.832Z,26.32
2024-04-19T09:59:37.917Z,26.38
2024-04-19T10:02:14.306Z,25.84
2024-04-19T10:04:51.831Z,26.23
2024-04-19T10:07:23.801Z,27.08
2024-04-19T10:09:56.846Z,28.16
2024-04-19T10:12:27.794Z,28.97
2024-04-19T10:14:58.734Z,29.52
2024-04-19T10:17:30.543Z,30.14
2024-04-19T10:20:01.694Z,29.75
2024-04-19T10:22:33.255Z,30.79
2024-04-19T10:25:04.995Z,30.83
2024-04-19T10:27:38.707Z,31.62
2024-04-19T10:30:18.539Z,31.42
2024-04-19T10:32:57.294Z,31.71
2024-04-19T10:35:28.778Z,32.59
2024-04-19T10:38:01.587Z,32.31
2024-04-19T10:40:33.407Z,31.99
2024-04-19T10:43:08.707Z,31.74
2024-04-19T10:45:40.275Z,31.46
2024-04-19T10:48:12.266Z,31.90
2024-04-19T10:50:46.378Z,32.34
2024-04-19T10:53:19.693Z,32.64
2024-04-19T10:55:50.200Z,32.21
2024-04-19T10:58:20.716Z,32.41
2024-04-19T11:00:51.327Z,33.80
2024-04-19T11:03:22.379Z,34.00
2024-04-19T11:05:53.953Z,33.82
2024-04-19T11:08:27.006Z,33.51
2024-04-19T11:10:59.679Z,33.67
2024-04-19T11:13:30.332Z,33.99
2024-04-19T11:16:01.200Z,33.84
2024-04-19T11:18:32.799Z,33.80
2024-04-19T11:21:08.523Z,34.24
2024-04-19T11:23:43.045Z,33.72
2024-04-19T11:26:19.850Z,34.35
2024-04-19T11:28:50.651Z,33.79
2024-04-19T11:31:22.886Z,33.89
2024-04-19T11:33:57.352Z,33.76
2024-04-19T11:36:31.386Z,33.86
2024-04-19T11:39:02.008Z,34.03
2024-04-19T11:41:33.401Z,34.04
2024-04-19T11:44:04.982Z,33.76
2024-04-19T11:46:35.663Z,34.35
2024-04-19T11:49:06.794Z,34.37
2024-04-19T11:51:37.782Z,34.26
2024-04-19T11:54:08.961Z,34.42
2024-04-19T11:56:42.414Z,34.36
2024-04-19T11:59:26.972Z,34.96
2024-04-19T12:01:58.381Z,34.99
2024-04-19T12:04:28.949Z,35.53
2024-04-19T12:06:59.873Z,35.12
2024-04-19T12:09:30.571Z,35.63
2024-04-19T12:15:23.386Z,36.31
2024-04-19T12:17:29.744Z,36.68
2024-04-19T12:20:07.972Z,36.25
2024-04-19T12:22:54.670Z,36.61
2024-04-19T12:25:31.131Z,36.50
2024-04-19T12:28:03.522Z,36.97
2024-04-19T12:30:34.606Z,37.42
2024-04-19T12:33:05.479Z,37.62
2024-04-19T12:35:37.625Z,38.22
2024-04-19T12:38:08.542Z,38.50
2024-04-19T12:40:41.939Z,38.52
2024-04-19T12:43:17.166Z,38.62
2024-04-19T12:45:52.354Z,38.60
2024-04-19T12:48:23.385Z,38.91
2024-04-19T12:50:53.720Z,38.93
2024-04-19T12:53:24.493Z,39.12
2024-04-19T12:55:55.172Z,39.55
2024-04-19T12:58:25.580Z,39.46
2024-04-19T13:01:05.722Z,39.64
2024-04-19T13:03:36.701Z,39.77
2024-04-19T13:06:08.834Z,39.39
2024-04-19T13:08:39.610Z,39.38
2024-04-19T13:11:10.167Z,39.39
2024-04-19T13:13:59.234Z,39.39
2024-04-19T13:16:31.980Z,39.48
2024-04-19T13:19:02.811Z,39.56
2024-04-19T13:21:34.882Z,39.37
2024-04-19T13:24:05.800Z,39.38
2024-04-19T13:26:37.216Z,39.25
2024-04-19T13:29:07.879Z,39.40
2024-04-19T13:31:38.460Z,39.38
2024-04-19T13:34:09.376Z,39.30
2024-04-19T13:36:45.533Z,39.49
2024-04-19T13:39:17.342Z,39.64
2024-04-19T13:41:47.950Z,39.49
2024-04-19T13:44:18.975Z,39.27
2024-04-19T13:46:49.793Z,39.27
2024-04-19T13:49:20.338Z,39.40
2024-04-19T13:51:50.879Z,39.27
2024-04-19T13:54:22.102Z,39.46
2024-04-19T13:56:52.684Z,39.29
2024-04-19T13:59:23.906Z,39.74
2024-04-19T14:01:55.366Z,39.36
2024-04-19T14:04:26.492Z,39.36
2024-04-19T14:06:59.975Z,39.32
2024-04-19T14:09:34.537Z,39.37
2024-04-19T14:12:10.677Z,39.47
2024-04-19T14:14:43.344Z,39.48
2024-04-19T14:17:13.643Z,39.52
2024-04-19T14:19:44.658Z,39.96
2024-04-19T14:22:17.651Z,40.17
2024-04-19T14:24:49.889Z,40.09
2024-04-19T14:27:20.621Z,40.05
2024-04-19T14:29:51.380Z,40.07
2024-04-19T14:32:21.763Z,40.03
2024-04-19T14:34:52.017Z,40.28
2024-04-19T14:37:25.381Z,40.70
2024-04-19T14:39:56.753Z,40.33
2024-04-19T14:42:28.390Z,41.22
2024-04-19T14:44:59.111Z,41.20
2024-04-19T14:47:29.416Z,41.22
2024-04-19T14:49:59.832Z,41.27
2024-04-19T14:52:31.259Z,41.66
2024-04-19T14:55:02.296Z,41.79
2024-04-19T14:57:32.546Z,41.87
2024-04-19T15:00:02.456Z,42.00
2024-04-19T15:02:34.400Z,42.23
2024-04-19T15:05:05.269Z,42.42
2024-04-19T15:07:39.591Z,42.66
2024-04-19T15:10:11.009Z,42.63
2024-04-19T15:12:41.246Z,43.33
2024-04-19T15:15:13.673Z,43.15
2024-04-19T15:17:45.184Z,43.36
2024-04-19T15:20:17.531Z,43.27
2024-04-19T15:22:47.781Z,43.39
2024-04-19T15:25:18.310Z,43.29
2024-04-19T15:27:48.634Z,42.90
2024-04-19T15:30:22.426Z,42.62
2024-04-19T15:32:56.163Z,42.04
2024-04-19T15:35:29.911Z,41.91
2024-04-19T15:38:00.904Z,41.53
2024-04-19T15:40:31.209Z,41.64
2024-04-19T15:43:02.314Z,41.20
2024-04-19T15:45:35.281Z,40.88
2024-04-19T15:48:05.704Z,41.10
2024-04-19T15:50:40.020Z,40.61
2024-04-19T15:53:11.025Z,40.73
2024-04-19T15:55:45.007Z,40.54
2024-04-19T15:58:15.945Z,40.68
2024-04-19T16:00:46.397Z,40.93
2024-04-19T16:03:17.971Z,41.15
2024-04-19T16:05:48.352Z,40.63
2024-04-19T16:08:20.784Z,40.92
2024-04-19T16:10:51.628Z,40.24
2024-04-19T16:13:22.004Z,40.78
2024-04-19T16:16:11.380Z,40.20
2024-04-19T16:18:43.079Z,40.28
2024-04-19T16:21:14.431Z,40.86
2024-04-19T16:23:46.239Z,40.24
2024-04-19T16:26:17.243Z,40.06
2024-04-19T16:28:47.505Z,40.63
2024-04-19T16:31:18.212Z,39.79
2024-04-19T16:33:48.700Z,39.99
2024-04-19T16:36:18.925Z,39.61
2024-04-19T16:38:49.058Z,39.44
2024-04-19T16:41:22.567Z,39.80
2024-04-19T16:43:53.099Z,39.87
2024-04-19T16:46:23.258Z,40.26
2024-04-19T16:48:53.430Z,40.48
2024-04-19T16:51:24.628Z,40.75
2024-04-19T16:53:56.047Z,40.66
2024-04-19T16:56:26.293Z,40.60
2024-04-19T16:58:56.389Z,40.42
2024-04-19T17:01:26.694Z,40.27
2024-04-19T17:03:57.190Z,40.63
2024-04-19T17:06:27.341Z,41.11
2024-04-19T17:08:57.565Z,41.38
2024-04-19T17:11:27.639Z,41.90
2024-04-19T17:13:57.470Z,41.61
2024-04-19T17:16:27.709Z,42.52
2024-04-19T17:18:58.599Z,42.53
2024-04-19T17:21:29.129Z,42.83
2024-04-19T17:23:59.356Z,42.60
2024-04-19T17:26:30.616Z,43.19
2024-04-19T17:29:01.694Z,42.65
2024-04-19T17:31:31.762Z,42.86
2024-04-19T17:34:04.592Z,42.54
2024-04-19T17:36:35.006Z,42.63
2024-04-19T17:39:05.632Z,42.82
2024-04-19T17:41:38.674Z,42.41
2024-04-19T17:44:08.773Z,42.21
2024-04-19T17:46:42.391Z,41.45
2024-04-19T17:49:12.476Z,41.34
2024-04-19T17:51:43.399Z,41.51
2024-04-19T17:54:20.691Z,40.13
2024-04-19T17:56:50.808Z,40.24
2024-04-19T17:59:20.884Z,40.67
2024-04-19T18:01:51.120Z,40.84
2024-04-19T18:04:28.674Z,40.18
2024-04-19T18:07:07.073Z,40.03
2024-04-19T18:09:53.250Z,40.19
2024-04-19T18:12:40.800Z,40.04
2024-04-19T18:15:14.517Z,39.90
2024-04-19T18:17:51.215Z,40.47
2024-04-19T18:20:36.258Z,40.40
2024-04-19T18:23:20.013Z,40.11
2024-04-19T18:25:55.488Z,40.46
2024-04-19T18:28:37.764Z,40.71
2024-04-19T18:31:15.521Z,40.20
2024-04-19T18:33:50.118Z,39.24
2024-04-19T18:36:29.471Z,38.71
2024-04-19T18:39:12.460Z,38.50
2024-04-19T18:41:47.591Z,38.54
2024-04-19T18:44:28.564Z,38.36
2024-04-19T18:47:07.554Z,38.29
2024-04-19T18:49:48.914Z,38.62
2024-04-19T18:52:24.520Z,38.42
2024-04-19T18:55:02.558Z,38.74
2024-04-19T18:57:42.094Z,38.40
2024-04-19T19:00:17.563Z,38.56
2024-04-19T19:02:56.572Z,39.03
2024-04-19T19:05:33.035Z,39.08
2024-04-19T19:08:12.372Z,38.67
2024-04-19T19:10:46.296Z,38.52
2024-04-19T19:13:19.071Z,38.45
2024-04-19T19:16:02.962Z,38.42
2024-04-19T19:18:41.677Z,38.69
2024-04-19T19:21:18.571Z,38.69
2024-04-19T19:23:57.656Z,38.99
2024-04-19T19:26:30.797Z,39.35
2024-04-19T19:29:09.166Z,39.46
2024-04-19T19:31:43.203Z,39.10
2024-04-19T19:34:15.749Z,39.09
2024-04-19T19:36:55.588Z,39.11
2024-04-19T19:39:32.479Z,39.02
2024-04-19T19:42:06.133Z,39.49
2024-04-19T19:44:39.285Z,39.67
2024-04-19T19:47:12.240Z,39.57
2024-04-19T19:49:47.612Z,39.57
2024-04-19T19:52:26.696Z,39.79
2024-04-19T19:55:00.660Z,39.96
2024-04-19T19:57:33.020Z,39.53
2024-04-19T20:00:24.502Z,39.78
2024-04-19T20:03:29.232Z,40.30
2024-04-19T20:06:04.992Z,40.23
2024-04-19T20:08:39.633Z,40.28
2024-04-19T20:11:12.877Z,39.81
2024-04-19T20:13:45.530Z,40.25
2024-04-19T20:16:21.765Z,39.66
2024-04-19T20:18:54.507Z,39.99
2024-04-19T20:21:27.515Z,40.00
2024-04-19T20:24:05.909Z,39.93
2024-04-19T20:26:43.532Z,39.78
2024-04-19T20:29:20.088Z,40.27
2024-04-19T20:31:59.180Z,40.47
2024-04-19T20:34:34.802Z,39.84
2024-04-19T20:37:09.833Z,40.37
2024-04-19T20:39:42.761Z,40.65
2024-04-19T20:42:20.625Z,40.67
2024-04-19T20:44:57.560Z,40.58
2024-04-19T20:47:34.448Z,40.85
2024-04-19T20:50:16.200Z,40.25
2024-04-19T20:52:50.813Z,40.79
2024-04-19T20:55:27.345Z,40.46
2024-04-19T20:58:00.232Z,40.91
2024-04-19T21:00:42.070Z,40.77
2024-04-19T21:03:15.082Z,40.22
2024-04-19T21:05:51.682Z,40.43
2024-04-19T21:08:24.286Z,40.79
2024-04-19T21:10:56.435Z,41.35
2024-04-19T21:13:32.207Z,40.71
2024-04-19T21:16:13.907Z,41.28
2024-04-19T21:18:48.934Z,40.99
2024-04-19T21:21:23.598Z,41.08
2024-04-19T21:23:59.842Z,41.86
2024-04-19T21:26:35.427Z,41.41
2024-04-19T21:29:07.842Z,41.54
2024-04-19T21:31:40.940Z,41.69
2024-04-19T21:34:13.396Z,41.75
2024-04-19T21:36:48.747Z,41.57
2024-04-19T21:39:22.443Z,42.08
2024-04-19T21:41:58.242Z,41.95
2024-04-19T21:44:36.781Z,42.19
2024-04-19T21:47:11.606Z,42.16
2024-04-19T21:49:45.329Z,42.19
2024-04-19T21:52:20.537Z,42.21
2024-04-19T21:54:55.304Z,41.84
2024-04-19T21:57:37.285Z,42.34
2024-04-19T22:00:10.207Z,42.58
2024-04-19T22:02:42.680Z,43.01
2024-04-19T22:05:16.658Z,42.68
2024-04-19T22:07:49.277Z,42.83
2024-04-19T22:10:25.100Z,43.18
2024-04-19T22:13:14.396Z,43.07
2024-04-19T22:15:53.150Z,43.09
2024-04-19T22:18:25.927Z,43.07
2024-04-19T22:21:12.480Z,43.54
2024-04-19T22:23:45.045Z,43.21
2024-04-19T22:26:18.965Z,43.05
2024-04-19T22:28:53.286Z,43.90
2024-04-19T22:31:28.994Z,44.46
2024-04-19T22:34:08.096Z,44.17
2024-04-19T22:36:44.078Z,43.79
2024-04-19T22:39:17.313Z,44.38
2024-04-19T22:41:49.802Z,44.22
2024-04-19T22:44:22.264Z,43.98
2024-04-19T22:46:54.883Z,44.54
2024-04-19T22:49:27.550Z,44.06
2024-04-19T22:52:09.374Z,44.29
2024-04-19T22:54:45.558Z,44.17
2024-04-19T22:57:18.193Z,44.50
2024-04-19T22:59:51.347Z,43.80
2024-04-19T23:02:23.998Z,44.57
2024-04-19T23:05:00.678Z,44.32
2024-04-19T23:07:37.031Z,44.68
2024-04-19T23:10:12.967Z,44.55
2024-04-19T23:12:52.189Z,45.27
2024-04-19T23:15:31.338Z,45.06
2024-04-19T23:18:08.599Z,45.27
2024-04-19T23:20:41.630Z,45.45
2024-04-19T23:23:17.231Z,45.77
2024-04-19T23:26:08.471Z,44.95
2024-04-19T23:28:42.273Z,45.10
2024-04-19T23:31:19.880Z,45.99
2024-04-19T23:33:53.062Z,45.32
2024-04-19T23:36:25.899Z,45.68
2024-04-19T23:39:00.213Z,46.06
2024-04-19T23:41:33.351Z,46.18
2024-04-19T23:44:07.076Z,45.89
2024-04-19T23:46:39.974Z,45.69
2024-04-19T23:52:03.521Z,45.94
2024-04-19T23:54:39.729Z,45.83
2024-04-19T23:57:13.942Z,45.92
2024-04-19T23:59:50.648Z,46.14
